createdAt,value
2023-03-11T00:00:39.241Z,97738.00
2023-03-11T00:03:07.969Z,97740.00
2023-03-11T00:05:37.814Z,97744.00
2023-03-11T00:08:05.663Z,97749.00
2023-03-11T00:10:38.100Z,97753.00
2023-03-11T00:13:05.878Z,97758.00
2023-03-11T00:15:33.260Z,97776.00
2023-03-11T00:18:00.034Z,97786.00
2023-03-11T00:20:31.858Z,97803.00
2023-03-11T00:22:58.735Z,97814.00
2023-03-11T00:25:28.907Z,97829.00
2023-03-11T00:27:55.709Z,97837.00
2023-03-11T00:30:23.391Z,97847.00
2023-03-11T00:32:54.586Z,97852.00
2023-03-11T00:35:23.896Z,97858.00
2023-03-11T00:37:54.661Z,97864.00
2023-03-11T00:40:23.289Z,97867.00
2023-03-11T00:42:50.015Z,97875.00
2023-03-11T00:45:16.810Z,97879.00
2023-03-11T00:47:43.528Z,97888.00
2023-03-11T00:50:15.231Z,97894.00
2023-03-11T00:52:41.780Z,97892.00
2023-03-11T00:55:08.929Z,97893.00
2023-03-11T00:57:35.483Z,97902.00
2023-03-11T01:00:02.676Z,97900.00
2023-03-11T01:02:29.621Z,97902.00
2023-03-11T01:04:56.361Z,97901.00
2023-03-11T01:07:23.283Z,97921.00
2023-03-11T01:09:50.054Z,97925.00
2023-03-11T01:12:16.677Z,97936.00
2023-03-11T01:14:43.375Z,97945.00
2023-03-11T01:17:10.293Z,97947.00
2023-03-11T01:19:36.818Z,97961.00
2023-03-11T01:22:03.428Z,97962.00
2023-03-11T01:24:30.039Z,97962.00
2023-03-11T01:26:56.562Z,97978.00
2023-03-11T01:29:24.665Z,97982.00
2023-03-11T01:31:51.239Z,97991.00
2023-03-11T01:34:17.851Z,98010.00
2023-03-11T01:36:44.417Z,98005.00
2023-03-11T01:39:11.011Z,98014.00
2023-03-11T01:41:37.567Z,98021.00
2023-03-11T01:44:05.084Z,98022.00
2023-03-11T01:47:00.063Z,98022.00
2023-03-11T01:49:32.615Z,98041.00
2023-03-11T01:52:07.581Z,98054.00
2023-03-11T01:54:39.800Z,98059.00
2023-03-11T01:57:08.826Z,98065.00
2023-03-11T01:59:46.283Z,98079.00
2023-03-11T02:02:26.829Z,98080.00
2023-03-11T02:04:54.511Z,98091.00
2023-03-11T02:07:23.706Z,98096.00
2023-03-11T02:09:50.727Z,98093.00
2023-03-11T02:12:17.804Z,98109.00
2023-03-11T02:14:48.118Z,98120.00
2023-03-11T02:17:15.419Z,98131.00
2023-03-11T02:19:51.268Z,98157.00
2023-03-11T02:22:18.093Z,98156.00
2023-03-11T02:25:10.471Z,98157.00
2023-03-11T02:27:42.465Z,98163.00
2023-03-11T02:30:12.140Z,98174.00
2023-03-11T02:32:40.377Z,98180.00
2023-03-11T02:35:07.965Z,98199.00
2023-03-11T02:37:35.224Z,98207.00
2023-03-11T02:40:23.190Z,98215.00
2023-03-11T02:42:59.086Z,98233.00
2023-03-11T02:45:26.836Z,98251.00
2023-03-11T02:47:55.477Z,98236.00
2023-03-11T02:50:22.683Z,98268.00
2023-03-11T02:52:50.179Z,98259.00
2023-03-11T02:55:18.202Z,98273.00
2023-03-11T02:57:44.884Z,98290.00
2023-03-11T03:00:16.488Z,98298.00
2023-03-11T03:02:53.952Z,98313.00
2023-03-11T03:05:22.280Z,98313.00
2023-03-11T03:07:51.020Z,98323.00
2023-03-11T03:10:19.591Z,98336.00
2023-03-11T03:12:46.504Z,98341.00
2023-03-11T03:15:15.893Z,98352.00
2023-03-11T03:17:43.372Z,98353.00
2023-03-11T03:20:11.976Z,98368.00
2023-03-11T03:22:42.324Z,98378.00
2023-03-11T03:25:11.315Z,98376.00
2023-03-11T03:27:38.552Z,98392.00
2023-03-11T03:30:07.756Z,98405.00
2023-03-11T03:32:34.846Z,98409.00
2023-03-11T03:35:02.613Z,98425.00
2023-03-11T03:37:45.904Z,98434.00
2023-03-11T03:40:13.403Z,98453.00
2023-03-11T03:42:40.072Z,98454.00
2023-03-11T03:45:08.723Z,98465.00
2023-03-11T03:47:35.934Z,98478.00
2023-03-11T03:50:08.552Z,98485.00
2023-03-11T03:52:36.819Z,98494.00
2023-03-11T03:55:04.947Z,98505.00
2023-03-11T03:57:32.078Z,98515.00
2023-03-11T03:59:58.819Z,98519.00
2023-03-11T04:02:25.822Z,98523.00
2023-03-11T04:04:52.613Z,98542.00
2023-03-11T04:07:19.878Z,98540.00
2023-03-11T04:09:46.506Z,98562.00
2023-03-11T04:12:15.375Z,98562.00
2023-03-11T04:14:42.102Z,98575.00
2023-03-11T04:17:11.546Z,98582.00
2023-03-11T04:19:38.538Z,98595.00
2023-03-11T04:22:05.590Z,98593.00
2023-03-11T04:24:32.335Z,98590.00
2023-03-11T04:26:59.121Z,98597.00
2023-03-11T04:29:25.735Z,98616.00
2023-03-11T04:31:53.616Z,98611.00
2023-03-11T04:34:20.259Z,98615.00
2023-03-11T04:36:46.931Z,98631.00
2023-03-11T04:39:15.848Z,98635.00
2023-03-11T04:41:44.079Z,98645.00
2023-03-11T04:44:15.187Z,98653.00
2023-03-11T04:46:42.004Z,98650.00
2023-03-11T04:49:10.315Z,98665.00
2023-03-11T04:51:38.153Z,98670.00
2023-03-11T04:54:06.372Z,98679.00
2023-03-11T04:56:33.781Z,98684.00
2023-03-11T04:59:01.033Z,98692.00
2023-03-11T05:01:30.528Z,98694.00
2023-03-11T05:04:00.033Z,98695.00
2023-03-11T05:06:26.758Z,98704.00
2023-03-11T05:08:53.775Z,98709.00
2023-03-11T05:11:20.990Z,98725.00
2023-03-11T05:13:48.632Z,98718.00
2023-03-11T05:16:15.809Z,98731.00
2023-03-11T05:18:43.202Z,98732.00
2023-03-11T05:21:12.570Z,98745.00
2023-03-11T05:23:39.342Z,98762.00
2023-03-11T05:26:06.173Z,98775.00
2023-03-11T05:28:34.026Z,98780.00
2023-03-11T05:31:01.796Z,98785.00
2023-03-11T05:33:35.276Z,98788.00
2023-03-11T05:36:06.815Z,98802.00
2023-03-11T05:38:33.796Z,98814.00
2023-03-11T05:41:04.099Z,98817.00
2023-03-11T05:43:30.717Z,98826.00
2023-03-11T05:45:57.290Z,98820.00
2023-03-11T05:48:24.077Z,98835.00
2023-03-11T05:50:50.745Z,98833.00
2023-03-11T05:53:17.793Z,98837.00
2023-03-11T05:55:44.288Z,98853.00
2023-03-11T05:58:11.915Z,98860.00
2023-03-11T06:00:38.616Z,98869.00
2023-03-11T06:03:05.473Z,98863.00
2023-03-11T06:05:32.037Z,98869.00
2023-03-11T06:07:59.009Z,98857.00
2023-03-11T06:10:25.717Z,98890.00
2023-03-11T06:12:52.283Z,98896.00
2023-03-11T06:15:45.861Z,98907.00
2023-03-11T06:18:12.587Z,98915.00
2023-03-11T06:20:39.210Z,98919.00
2023-03-11T06:23:05.774Z,98920.00
2023-03-11T06:25:32.754Z,98937.00
2023-03-11T06:27:59.963Z,98932.00
2023-03-11T06:30:26.634Z,98928.00
2023-03-11T06:33:00.623Z,98930.00
2023-03-11T06:35:29.264Z,98952.00
2023-03-11T06:37:55.823Z,98950.00
2023-03-11T06:40:22.426Z,98942.00
2023-03-11T06:42:49.041Z,98966.00
2023-03-11T06:45:18.848Z,98972.00
2023-03-11T06:47:47.104Z,98982.00
2023-03-11T06:50:14.215Z,98981.00
2023-03-11T06:52:40.807Z,98992.00
2023-03-11T06:55:08.786Z,98994.00
2023-03-11T06:57:36.456Z,98997.00
2023-03-11T07:00:13.680Z,99018.00
2023-03-11T07:02:45.081Z,99021.00
2023-03-11T07:05:15.255Z,99026.00
2023-03-11T07:07:41.974Z,99027.00
2023-03-11T07:10:09.961Z,99033.00
2023-03-11T07:12:36.644Z,99039.00
2023-03-11T07:15:03.537Z,99041.00
2023-03-11T07:17:31.068Z,99043.00
2023-03-11T07:19:57.841Z,99056.00
2023-03-11T07:22:24.370Z,99056.00
2023-03-11T07:24:50.891Z,99065.00
2023-03-11T07:27:18.180Z,99085.00
2023-03-11T07:29:44.731Z,99080.00
2023-03-11T07:32:11.291Z,99080.00
2023-03-11T07:34:37.785Z,99094.00
2023-03-11T07:37:04.367Z,99099.00
2023-03-11T07:39:30.937Z,99107.00
2023-03-11T07:41:57.471Z,99112.00
2023-03-11T07:44:33.398Z,99110.00
2023-03-11T07:47:03.281Z,99120.00
2023-03-11T07:49:29.876Z,99139.00
2023-03-11T07:51:56.452Z,99149.00
2023-03-11T07:54:23.013Z,99144.00
2023-03-11T07:56:49.739Z,99151.00
2023-03-11T07:59:16.353Z,99156.00
2023-03-11T08:01:47.073Z,99166.00
2023-03-11T08:04:16.910Z,99181.00
2023-03-11T08:06:45.255Z,99180.00
2023-03-11T08:09:12.718Z,99188.00
2023-03-11T08:11:39.663Z,99187.00
2023-03-11T08:14:06.456Z,99190.00
2023-03-11T08:16:33.241Z,99205.00
2023-03-11T08:18:59.833Z,99222.00
2023-03-11T08:21:29.191Z,99221.00
2023-03-11T08:24:00.259Z,99220.00
2023-03-11T08:26:26.942Z,99226.00
2023-03-11T08:28:54.734Z,99236.00
2023-03-11T08:31:26.855Z,99224.00
2023-03-11T08:33:55.741Z,99226.00
2023-03-11T08:36:22.435Z,99259.00
2023-03-11T08:38:48.977Z,99252.00
2023-03-11T08:41:16.179Z,99252.00
2023-03-11T08:43:42.895Z,99265.00
2023-03-11T08:46:16.135Z,99269.00
2023-03-11T08:48:42.700Z,99279.00
2023-03-11T08:51:11.493Z,99279.00
2023-03-11T08:53:38.160Z,99289.00
2023-03-11T08:56:05.361Z,99294.00
2023-03-11T08:58:31.963Z,99291.00
2023-03-11T09:00:59.003Z,99307.00
2023-03-11T09:03:25.565Z,99311.00
2023-03-11T09:06:03.113Z,99313.00
2023-03-11T09:08:30.094Z,99313.00
2023-03-11T09:10:56.638Z,99326.00
2023-03-11T09:13:23.170Z,99324.00
2023-03-11T09:15:50.515Z,99333.00
2023-03-11T09:18:17.780Z,99331.00
2023-03-11T09:20:44.750Z,99336.00
2023-03-11T09:23:14.500Z,99342.00
2023-03-11T09:25:41.136Z,99348.00
2023-03-11T09:28:07.705Z,99344.00
2023-03-11T09:30:34.464Z,99350.00
2023-03-11T09:33:01.052Z,99352.00
2023-03-11T09:35:27.767Z,99351.00
2023-03-11T09:37:54.356Z,99352.00
2023-03-11T09:40:23.151Z,99354.00
2023-03-11T09:43:15.571Z,99373.00
2023-03-11T09:45:51.207Z,99368.00
2023-03-11T09:48:29.696Z,99376.00
2023-03-11T09:51:33.059Z,99380.00
2023-03-11T09:54:10.697Z,99386.00
2023-03-11T09:56:38.571Z,99390.00
2023-03-11T09:59:09.763Z,99399.00
2023-03-11T10:01:42.953Z,99402.00
2023-03-11T10:04:28.396Z,99403.00
2023-03-11T10:06:56.124Z,99410.00
2023-03-11T10:09:28.810Z,99414.00
2023-03-11T10:11:55.444Z,99423.00
2023-03-11T10:14:44.727Z,99420.00
2023-03-11T10:17:17.186Z,99437.00
2023-03-11T10:19:55.405Z,99430.00
2023-03-11T10:22:33.683Z,99427.00
2023-03-11T10:25:15.137Z,99435.00
2023-03-11T10:28:08.935Z,99449.00
2023-03-11T10:30:58.142Z,99448.00
2023-03-11T10:33:29.565Z,99441.00
2023-03-11T10:35:59.060Z,99463.00
2023-03-11T10:38:28.995Z,99458.00
2023-03-11T10:40:58.337Z,99472.00
2023-03-11T10:43:29.222Z,99477.00
2023-03-11T10:45:55.840Z,99471.00
2023-03-11T10:48:24.870Z,99475.00
2023-03-11T10:51:15.487Z,99470.00
2023-03-11T10:53:54.191Z,99474.00
2023-03-11T10:56:31.774Z,99478.00
2023-03-11T10:58:59.522Z,99478.00
2023-03-11T11:01:26.501Z,99479.00
2023-03-11T11:03:57.913Z,99478.00
2023-03-11T11:06:30.448Z,99491.00
2023-03-11T11:09:09.212Z,99488.00
2023-03-11T11:11:36.391Z,99489.00
2023-03-11T11:14:06.148Z,99495.00
2023-03-11T11:16:34.284Z,99497.00
2023-03-11T11:19:05.089Z,99497.00
2023-03-11T11:21:39.506Z,99506.00
2023-03-11T11:24:23.114Z,99500.00
2023-03-11T11:27:26.015Z,99502.00
2023-03-11T11:30:08.895Z,99512.00
2023-03-11T11:32:36.358Z,99510.00
2023-03-11T11:35:06.916Z,99491.00
2023-03-11T11:37:36.129Z,99507.00
2023-03-11T11:40:14.772Z,99511.00
2023-03-11T11:42:46.228Z,99509.00
2023-03-11T11:45:21.967Z,99521.00
2023-03-11T11:47:52.290Z,99517.00
2023-03-11T11:50:30.058Z,99516.00
2023-03-11T11:53:01.993Z,99518.00
2023-03-11T11:55:30.711Z,99518.00
2023-03-11T11:57:57.651Z,99512.00
2023-03-11T12:00:34.740Z,99522.00
2023-03-11T12:03:32.269Z,99515.00
2023-03-11T12:06:00.553Z,99522.00
2023-03-11T12:09:05.625Z,99531.00
2023-03-11T12:11:41.782Z,99519.00
2023-03-11T12:14:18.062Z,99526.00
2023-03-11T12:16:56.936Z,99533.00
2023-03-11T12:19:40.784Z,99525.00
2023-03-11T12:22:16.102Z,99535.00
2023-03-11T12:24:59.192Z,99536.00
2023-03-11T12:27:29.818Z,99539.00
2023-03-11T12:29:59.138Z,99542.00
2023-03-11T12:32:39.081Z,99539.00
2023-03-11T12:35:33.216Z,99535.00
2023-03-11T12:38:05.842Z,99547.00
2023-03-11T12:40:47.509Z,99537.00
2023-03-11T12:43:33.810Z,99538.00
2023-03-11T12:46:02.231Z,99538.00
2023-03-11T12:48:41.037Z,99546.00
2023-03-11T12:51:27.708Z,99552.00
2023-03-11T12:53:55.440Z,99560.00
2023-03-11T12:56:35.084Z,99567.00
2023-03-11T12:59:34.764Z,99560.00
2023-03-11T13:02:10.297Z,99579.00
2023-03-11T13:04:44.352Z,99572.00
2023-03-11T13:07:22.931Z,99586.00
2023-03-11T13:10:03.680Z,99584.00
2023-03-11T13:12:46.165Z,99576.00
2023-03-11T13:15:18.510Z,99583.00
2023-03-11T13:18:00.632Z,99583.00
2023-03-11T13:20:43.142Z,99591.00
2023-03-11T13:23:12.574Z,99601.00
2023-03-11T13:25:40.766Z,99597.00
2023-03-11T13:28:13.639Z,99599.00
2023-03-11T13:30:45.799Z,99604.00
2023-03-11T13:33:23.046Z,99610.00
2023-03-11T13:36:00.699Z,99608.00
2023-03-11T13:39:00.943Z,99613.00
2023-03-11T13:41:33.329Z,99616.00
2023-03-11T13:44:11.333Z,99628.00
2023-03-11T13:46:40.676Z,99626.00
2023-03-11T13:49:36.683Z,99623.00
2023-03-11T13:52:04.488Z,99635.00
2023-03-11T13:54:39.835Z,99624.00
2023-03-11T13:57:23.589Z,99642.00
2023-03-11T13:59:55.063Z,99642.00
2023-03-11T14:02:25.333Z,99647.00
2023-03-11T14:04:58.968Z,99647.00
2023-03-11T14:07:29.348Z,99653.00
2023-03-11T14:10:18.942Z,99653.00
2023-03-11T14:12:46.005Z,99645.00
2023-03-11T14:15:21.897Z,99651.00
2023-03-11T14:17:49.008Z,99655.00
2023-03-11T14:20:18.205Z,99658.00
2023-03-11T14:22:47.304Z,99670.00
2023-03-11T14:25:20.022Z,99673.00
2023-03-11T14:27:51.930Z,99663.00
2023-03-11T14:30:21.850Z,99669.00
2023-03-11T14:33:03.054Z,99670.00
2023-03-11T14:35:31.164Z,99670.00
2023-03-11T14:37:57.936Z,99675.00
2023-03-11T14:40:34.214Z,99676.00
2023-03-11T14:43:06.137Z,99681.00
2023-03-11T14:45:34.248Z,99680.00
2023-03-11T14:48:12.390Z,99685.00
2023-03-11T14:50:39.095Z,99683.00
2023-03-11T14:53:13.804Z,99688.00
2023-03-11T14:55:53.421Z,99691.00
2023-03-11T14:58:26.296Z,99683.00
2023-03-11T15:00:58.694Z,99686.00
2023-03-11T15:03:33.111Z,99700.00
2023-03-11T15:06:09.550Z,99687.00
2023-03-11T15:08:49.296Z,99689.00
2023-03-11T15:11:16.308Z,99693.00
2023-03-11T15:13:47.239Z,99698.00
2023-03-11T15:16:29.946Z,99700.00
2023-03-11T15:18:56.915Z,99701.00
2023-03-11T15:21:24.820Z,99710.00
2023-03-11T15:24:04.954Z,99709.00
2023-03-11T15:26:33.720Z,99704.00
2023-03-11T15:29:13.260Z,99715.00
2023-03-11T15:31:40.709Z,99715.00
2023-03-11T15:34:17.702Z,99716.00
2023-03-11T15:36:56.648Z,99708.00
2023-03-11T15:39:41.139Z,99711.00
2023-03-11T15:42:07.859Z,99720.00
2023-03-11T15:45:08.356Z,99719.00
2023-03-11T15:47:36.107Z,99713.00
2023-03-11T15:50:23.545Z,99726.00
2023-03-11T15:52:53.150Z,99728.00
2023-03-11T15:55:19.962Z,99738.00
2023-03-11T15:57:51.063Z,99731.00
2023-03-11T16:00:23.384Z,99747.00
2023-03-11T16:02:50.758Z,99747.00
2023-03-11T16:05:19.719Z,99754.00
2023-03-11T16:07:46.863Z,99753.00
2023-03-11T16:10:16.235Z,99752.00
2023-03-11T16:12:43.080Z,99753.00
2023-03-11T16:15:19.224Z,99746.00
2023-03-11T16:17:49.915Z,99754.00
2023-03-11T16:20:18.696Z,99761.00
2023-03-11T16:22:46.022Z,99775.00
2023-03-11T16:25:21.904Z,99770.00
2023-03-11T16:27:51.085Z,99775.00
2023-03-11T16:30:18.331Z,99779.00
2023-03-11T16:32:45.025Z,99779.00
2023-03-11T16:35:12.147Z,99786.00
2023-03-11T16:37:39.871Z,99792.00
2023-03-11T16:40:07.339Z,99788.00
2023-03-11T16:42:34.169Z,99793.00
2023-03-11T16:45:03.467Z,99790.00
2023-03-11T16:47:30.736Z,99801.00
2023-03-11T16:49:57.240Z,99812.00
2023-03-11T16:52:23.916Z,99817.00
2023-03-11T16:54:50.603Z,99811.00
2023-03-11T16:57:17.480Z,99819.00
2023-03-11T16:59:44.159Z,99811.00
2023-03-11T17:02:11.770Z,99826.00
2023-03-11T17:04:38.711Z,99824.00
2023-03-11T17:07:06.904Z,99829.00
2023-03-11T17:09:34.305Z,99828.00
2023-03-11T17:12:01.704Z,99831.00
2023-03-11T17:14:29.223Z,99823.00
2023-03-11T17:16:55.781Z,99834.00
2023-03-11T17:19:23.969Z,99843.00
2023-03-11T17:21:51.210Z,99845.00
2023-03-11T17:24:17.899Z,99845.00
2023-03-11T17:26:44.481Z,99856.00
2023-03-11T17:29:11.216Z,99850.00
2023-03-11T17:31:37.820Z,99853.00
2023-03-11T17:34:04.411Z,99857.00
2023-03-11T17:36:30.952Z,99853.00
2023-03-11T17:38:57.823Z,99845.00
2023-03-11T17:41:24.520Z,99852.00
2023-03-11T17:43:51.693Z,99864.00
2023-03-11T17:46:19.667Z,99866.00
2023-03-11T17:48:48.033Z,99867.00
2023-03-11T17:51:17.339Z,99872.00
2023-03-11T17:53:45.994Z,99871.00
2023-03-11T17:56:14.773Z,99873.00
2023-03-11T17:58:41.833Z,99872.00
2023-03-11T18:01:17.057Z,99863.00
2023-03-11T18:03:43.827Z,99880.00
2023-03-11T18:06:11.144Z,99875.00
2023-03-11T18:08:37.684Z,99883.00
2023-03-11T18:11:09.651Z,99883.00
2023-03-11T18:13:37.605Z,99882.00
2023-03-11T18:16:05.531Z,99884.00
2023-03-11T18:18:32.925Z,99895.00
2023-03-11T18:21:06.910Z,99881.00
2023-03-11T18:23:33.757Z,99875.00
2023-03-11T18:26:01.662Z,99895.00
2023-03-11T18:28:28.846Z,99891.00
2023-03-11T18:30:55.769Z,99897.00
2023-03-11T18:33:23.665Z,99898.00
2023-03-11T18:35:50.283Z,99895.00
2023-03-11T18:38:16.859Z,99877.00
2023-03-11T18:40:44.179Z,99900.00
2023-03-11T18:43:13.260Z,99905.00
2023-03-11T18:45:40.253Z,99903.00
2023-03-11T18:48:06.967Z,99888.00
2023-03-11T18:50:33.525Z,99894.00
2023-03-11T18:53:00.031Z,99902.00
2023-03-11T18:55:26.579Z,99898.00
2023-03-11T18:57:53.227Z,99910.00
2023-03-11T19:00:23.500Z,99914.00
2023-03-11T19:02:51.882Z,99909.00
2023-03-11T19:05:18.579Z,99909.00
2023-03-11T19:07:45.334Z,99907.00
2023-03-11T19:10:12.311Z,99897.00
2023-03-11T19:12:39.914Z,99901.00
2023-03-11T19:15:07.121Z,99903.00
2023-03-11T19:17:33.707Z,99909.00
2023-03-11T19:20:00.285Z,99906.00
2023-03-11T19:22:26.784Z,99904.00
2023-03-11T19:24:53.853Z,99914.00
2023-03-11T19:27:20.480Z,99914.00
2023-03-11T19:29:47.051Z,99897.00
2023-03-11T19:32:13.635Z,99907.00
2023-03-11T19:34:40.268Z,99913.00
2023-03-11T19:37:06.721Z,99908.00
2023-03-11T19:39:33.259Z,99910.00
2023-03-11T19:41:59.896Z,99909.00
2023-03-11T19:44:26.534Z,99910.00
2023-03-11T19:46:53.063Z,99910.00
2023-03-11T19:49:19.623Z,99910.00
2023-03-11T19:51:50.460Z,99903.00
2023-03-11T19:54:17.910Z,99915.00
2023-03-11T19:56:44.726Z,99925.00
2023-03-11T19:59:11.733Z,99915.00
2023-03-11T20:01:38.228Z,99895.00
2023-03-11T20:04:05.160Z,99905.00
2023-03-11T20:06:31.841Z,99905.00
2023-03-11T20:08:58.455Z,99916.00
2023-03-11T20:11:24.974Z,99908.00
2023-03-11T20:13:51.538Z,99913.00
2023-03-11T20:16:19.381Z,99911.00
2023-03-11T20:18:50.002Z,99920.00
2023-03-11T20:21:16.646Z,99919.00
2023-03-11T20:23:43.154Z,99931.00
2023-03-11T20:26:12.821Z,99930.00
2023-03-11T20:28:39.539Z,99918.00
2023-03-11T20:31:16.029Z,99929.00
2023-03-11T20:33:42.644Z,99930.00
2023-03-11T20:36:12.169Z,99922.00
2023-03-11T20:38:39.066Z,99916.00
2023-03-11T20:41:07.896Z,99910.00
2023-03-11T20:43:38.001Z,99921.00
2023-03-11T20:46:05.311Z,99924.00
2023-03-11T20:48:32.322Z,99918.00
2023-03-11T20:51:03.369Z,99926.00
2023-03-11T20:53:30.994Z,99936.00
2023-03-11T20:55:58.731Z,99919.00
2023-03-11T20:58:25.447Z,99930.00
2023-03-11T21:00:52.407Z,99923.00
2023-03-11T21:03:19.137Z,99931.00
2023-03-11T21:05:45.857Z,99932.00
2023-03-11T21:08:12.619Z,99917.00
2023-03-11T21:10:39.247Z,99912.00
2023-03-11T21:13:06.462Z,99913.00
2023-03-11T21:15:35.509Z,99906.00
2023-03-11T21:18:02.906Z,99924.00
2023-03-11T21:20:29.523Z,99909.00
2023-03-11T21:22:56.298Z,99918.00
2023-03-11T21:25:22.858Z,99919.00
2023-03-11T21:27:49.362Z,99927.00
2023-03-11T21:30:15.930Z,99913.00
2023-03-11T21:32:42.662Z,99927.00
2023-03-11T21:35:09.504Z,99934.00
2023-03-11T21:37:36.223Z,99929.00
2023-03-11T21:40:03.697Z,99923.00
2023-03-11T21:42:30.391Z,99907.00
2023-03-11T21:44:57.180Z,99925.00
2023-03-11T21:47:23.842Z,99933.00
2023-03-11T21:49:50.710Z,99916.00
2023-03-11T21:52:17.336Z,99928.00
2023-03-11T21:54:43.980Z,99909.00
2023-03-11T21:57:11.220Z,99910.00
2023-03-11T21:59:37.994Z,99924.00
2023-03-11T22:02:04.727Z,99894.00
2023-03-11T22:04:31.844Z,99915.00
2023-03-11T22:06:58.679Z,99917.00
2023-03-11T22:09:26.281Z,99909.00
2023-03-11T22:11:53.918Z,99908.00
2023-03-11T22:14:24.310Z,99913.00
2023-03-11T22:16:53.997Z,99912.00
2023-03-11T22:19:20.814Z,99920.00
2023-03-11T22:21:49.044Z,99917.00
2023-03-11T22:24:15.954Z,99911.00
2023-03-11T22:26:42.456Z,99908.00
2023-03-11T22:29:09.148Z,99911.00
2023-03-11T22:31:35.845Z,99912.00
2023-03-11T22:34:02.395Z,99912.00
2023-03-11T22:36:28.942Z,99909.00
2023-03-11T22:38:56.460Z,99910.00
2023-03-11T22:41:22.966Z,99916.00
2023-03-11T22:43:49.480Z,99908.00
2023-03-11T22:46:16.048Z,99917.00
2023-03-11T22:48:42.668Z,99910.00
2023-03-11T22:51:09.395Z,99914.00
2023-03-11T22:53:36.118Z,99923.00
2023-03-11T22:56:14.647Z,99927.00
2023-03-11T22:58:41.599Z,99908.00
2023-03-11T23:01:09.235Z,99919.00
2023-03-11T23:03:36.759Z,99915.00
2023-03-11T23:06:06.201Z,99930.00
2023-03-11T23:08:32.974Z,99930.00
2023-03-11T23:11:09.513Z,99927.00
2023-03-11T23:13:36.248Z,99917.00
2023-03-11T23:16:11.989Z,99916.00
2023-03-11T23:18:38.798Z,99924.00
2023-03-11T23:21:05.610Z,99918.00
2023-03-11T23:23:32.332Z,99913.00
2023-03-11T23:25:59.002Z,99925.00
2023-03-11T23:28:25.624Z,99926.00
2023-03-11T23:30:55.458Z,99925.00
2023-03-11T23:33:24.339Z,99917.00
2023-03-11T23:35:51.025Z,99928.00
2023-03-11T23:38:17.678Z,99925.00
2023-03-11T23:40:44.218Z,99927.00
2023-03-11T23:43:10.963Z,99920.00
2023-03-11T23:45:37.607Z,99920.00
2023-03-11T23:48:04.278Z,99923.00
2023-03-11T23:50:30.937Z,99938.00
2023-03-11T23:52:57.567Z,99936.00
2023-03-11T23:55:24.155Z,99924.00
2023-03-11T23:57:50.768Z,99927.00
